Time;durP1;ratioP1;P1;durP2;ratioP2;P2;SDS_P1;SDS_P2;PMS_P1;PMS_P2;Temp;Humidity;BMP_temperature;BMP_pressure;BME280_temperature;BME280_humidity;BME280_pressure;Samples;Min_cycle;Max_cycle;Signal;HPM_P1;HPM_P2
2022/03/15 00:01:54;;;;;;;31.60;13.70;;;;;;;1.54;54.91;101899.53;1757276;82;21017;-61
2022/03/15 00:04:23;;;;;;;32.88;13.53;;;;;;;1.53;55.00;101895.96;1757144;80;21018;-62
2022/03/15 00:06:52;;;;;;;28.00;13.32;;;;;;;1.53;55.04;101898.66;1757131;81;22120;-61
2022/03/15 00:09:21;;;;;;;30.68;13.98;;;;;;;1.53;55.09;101891.91;1757150;81;21057;-62
2022/03/15 00:11:54;;;;;;;32.55;13.72;;;;;;;1.53;55.12;101886.51;1757152;82;21014;-62
2022/03/15 00:14:24;;;;;;;33.55;14.53;;;;;;;1.52;55.18;101887.95;1757232;82;21068;-61
2022/03/15 00:16:52;;;;;;;32.88;13.85;;;;;;;1.51;55.24;101881.70;1757285;82;21006;-62
2022/03/15 00:19:21;;;;;;;33.30;13.83;;;;;;;1.48;55.29;101885.95;1757416;80;21061;-62
2022/03/15 00:21:53;;;;;;;30.90;13.68;;;;;;;1.47;55.35;101880.65;1757231;80;20983;-61
2022/03/15 00:24:22;;;;;;;30.75;13.80;;;;;;;1.45;55.42;101879.41;1757435;80;21026;-62
2022/03/15 00:26:53;;;;;;;35.05;13.75;;;;;;;1.42;55.60;101875.56;1757345;81;21064;-61
2022/03/15 00:29:23;;;;;;;33.38;13.10;;;;;;;1.41;55.73;101873.83;1757186;82;21026;-62
2022/03/15 00:31:54;;;;;;;29.98;13.25;;;;;;;1.40;55.83;101868.05;1757140;82;21077;-62
2022/03/15 00:34:23;;;;;;;30.08;12.93;;;;;;;1.40;55.90;101874.80;1757289;82;21074;-61
2022/03/15 00:36:54;;;;;;;35.23;13.45;;;;;;;1.40;55.94;101874.80;1757165;82;20989;-62
2022/03/15 00:39:23;;;;;;;30.85;13.22;;;;;;;1.39;56.00;101873.06;1757166;82;20987;-62
2022/03/15 00:41:53;;;;;;;30.08;13.38;;;;;;;1.39;56.11;101870.84;1757067;80;21046;-61
2022/03/15 00:44:23;;;;;;;30.65;12.78;;;;;;;1.38;56.19;101864.58;1757568;82;21442;-61
2022/03/15 00:46:52;;;;;;;27.95;13.55;;;;;;;1.35;56.32;101860.73;1757178;82;21037;-61
2022/03/15 00:49:22;;;;;;;31.40;14.25;;;;;;;1.34;56.42;101868.45;1757270;81;21065;-62
2022/03/15 00:51:54;;;;;;;29.40;13.58;;;;;;;1.34;56.54;101868.94;1757417;82;21057;-62
2022/03/15 00:54:23;;;;;;;33.70;13.80;;;;;;;1.32;56.65;101858.23;1757146;80;21033;-62
2022/03/15 00:56:53;;;;;;;32.85;13.80;;;;;;;1.32;56.71;101861.42;1757288;80;21045;-62
2022/03/15 00:59:22;;;;;;;29.50;13.53;;;;;;;1.32;56.80;101860.94;1757306;82;21050;-62
2022/03/15 01:01:52;;;;;;;28.38;13.80;;;;;;;1.30;56.88;101853.87;1757318;82;20994;-62
2022/03/15 01:04:21;;;;;;;31.62;13.93;;;;;;;1.30;56.96;101855.23;1757544;80;21022;-61
2022/03/15 01:06:50;;;;;;;32.90;14.87;;;;;;;1.29;57.02;101855.71;1757226;82;21442;-62
2022/03/15 01:09:20;;;;;;;36.13;15.23;;;;;;;1.30;57.06;101855.23;1733546;81;21628;-62
2022/03/15 01:11:51;;;;;;;33.08;14.87;;;;;;;1.29;57.15;101854.36;1733208;81;21031;-62
2022/03/15 01:14:20;;;;;;;40.95;14.05;;;;;;;1.31;57.18;101855.64;1733278;83;21059;-61
2022/03/15 01:16:49;;;;;;;36.20;15.15;;;;;;;1.30;57.26;101853.87;1733469;83;21018;-62
2022/03/15 01:19:20;;;;;;;34.70;15.25;;;;;;;1.32;57.32;101851.97;1733239;83;21035;-62
2022/03/15 01:21:51;;;;;;;37.35;15.15;;;;;;;1.30;57.33;101850.72;1733164;83;21058;-62
2022/03/15 01:24:21;;;;;;;39.03;15.20;;;;;;;1.28;57.37;101852.14;1733373;83;21462;-61
2022/03/15 01:26:51;;;;;;;35.83;15.23;;;;;;;1.29;57.44;101850.31;1733531;81;21015;-62
2022/03/15 01:29:22;;;;;;;37.15;15.72;;;;;;;1.29;57.44;101848.95;1733286;83;21078;-61
2022/03/15 01:31:52;;;;;;;35.95;15.00;;;;;;;1.27;57.50;101850.90;1733235;83;21473;-62
2022/03/15 01:34:22;;;;;;;35.48;14.53;;;;;;;1.27;57.54;101850.90;1733410;83;21043;-61
2022/03/15 01:36:52;;;;;;;35.08;15.18;;;;;;;1.27;57.58;101856.30;1733252;81;21022;-62
2022/03/15 01:39:22;;;;;;;38.95;15.18;;;;;;;1.27;57.62;101856.30;1733359;83;20999;-63
2022/03/15 01:41:52;;;;;;;35.13;15.40;;;;;;;1.25;57.65;101850.13;1733386;81;21478;-62
2022/03/15 01:44:22;;;;;;;34.67;15.28;;;;;;;1.24;57.72;101852.45;1733402;81;21019;-62
2022/03/15 01:46:51;;;;;;;34.53;15.83;;;;;;;1.20;57.79;101846.39;1733205;81;21125;-62
2022/03/15 01:49:20;;;;;;;36.38;15.13;;;;;;;1.20;57.83;101854.97;1733287;81;21012;-61
2022/03/15 01:51:51;;;;;;;43.80;15.28;;;;;;;1.18;57.87;101852.38;1733205;83;21047;-62
2022/03/15 01:54:20;;;;;;;36.20;14.50;;;;;;;1.17;57.89;101856.53;1733342;82;21042;-62
2022/03/15 01:56:49;;;;;;;30.57;14.70;;;;;;;1.15;57.93;101846.31;1733303;83;21047;-62
2022/03/15 01:59:18;;;;;;;33.30;14.50;;;;;;;1.13;58.02;101849.12;1733513;83;21015;-63
2022/03/15 02:01:47;;;;;;;31.85;13.55;;;;;;;1.13;58.04;101852.30;1733483;83;20991;-63
2022/03/15 02:04:18;;;;;;;32.90;14.15;;;;;;;1.11;58.09;101848.35;1733428;83;21447;-63
2022/03/15 02:06:50;;;;;;;34.35;14.93;;;;;;;1.09;58.19;101853.47;1733348;82;21023;-62
2022/03/15 02:09:18;;;;;;;38.05;14.18;;;;;;;1.06;58.30;101851.84;1733191;81;21528;-62
2022/03/15 02:11:48;;;;;;;33.23;13.93;;;;;;;1.05;58.34;101854.16;1679482;85;21067;-61
2022/03/15 02:14:18;;;;;;;36.33;14.68;;;;;;;1.05;58.38;101854.16;1679466;85;21079;-62
2022/03/15 02:16:46;;;;;;;33.83;14.30;;;;;;;1.06;58.41;101853.19;1679357;85;21475;-63
2022/03/15 02:19:17;;;;;;;30.80;13.80;;;;;;;1.05;58.41;101850.11;1679436;85;21024;-62
2022/03/15 02:21:46;;;;;;;30.45;14.28;;;;;;;1.04;58.45;101851.55;1679449;85;21079;-61
2022/03/15 02:24:16;;;;;;;29.32;13.03;;;;;;;1.02;58.50;101850.31;1679616;85;21012;-61
2022/03/15 02:26:45;;;;;;;35.03;14.58;;;;;;;1.00;58.57;101845.50;1679804;85;21051;-62
2022/03/15 02:29:13;;;;;;;28.75;13.00;;;;;;;0.98;58.64;101847.91;1679514;84;21082;-61
2022/03/15 02:31:44;;;;;;;32.45;13.28;;;;;;;0.95;58.71;101844.45;1679425;85;21086;-63
2022/03/15 02:34:13;;;;;;;29.42;13.00;;;;;;;0.94;58.76;101840.02;1679561;85;21083;-62
2022/03/15 02:36:42;;;;;;;30.35;14.25;;;;;;;0.94;58.85;101845.90;1712022;83;21399;-63
2022/03/15 02:39:12;;;;;;;31.23;13.32;;;;;;;0.92;58.91;101842.44;1733397;83;21035;-63
2022/03/15 02:41:43;;;;;;;29.05;14.58;;;;;;;0.91;59.06;101843.40;1733151;83;21451;-63
2022/03/15 02:44:13;;;;;;;28.20;13.68;;;;;;;0.89;59.08;101840.80;1733125;82;21023;-61
2022/03/15 02:46:45;;;;;;;32.17;13.90;;;;;;;0.87;59.12;101844.09;1733151;83;21062;-62
2022/03/15 02:49:14;;;;;;;31.12;13.60;;;;;;;0.85;59.15;101844.66;1713169;83;21537;-62
2022/03/15 02:51:43;;;;;;;34.65;14.90;;;;;;;0.81;59.25;101840.44;1733042;82;21173;-61
2022/03/15 02:54:13;;;;;;;32.20;13.85;;;;;;;0.76;59.35;101841.22;1733193;81;21455;-62
2022/03/15 02:56:43;;;;;;;28.05;13.45;;;;;;;0.69;59.45;101830.92;1733132;82;21031;-62
2022/03/15 02:59:17;;;;;;;29.15;14.65;;;;;;;0.60;59.52;101833.70;1733101;81;21050;-62
2022/03/15 03:01:47;;;;;;;30.43;14.75;;;;;;;0.50;59.71;101837.95;1733025;81;21019;-62
2022/03/15 03:04:19;;;;;;;29.63;14.85;;;;;;;0.41;59.91;101836.70;1733057;82;21059;-61
2022/03/15 03:06:49;;;;;;;28.07;13.85;;;;;;;0.31;60.11;101835.08;1733482;82;21078;-62
2022/03/15 03:09:18;;;;;;;28.27;14.25;;;;;;;0.22;60.28;101832.95;1751868;80;21002;-63
2022/03/15 03:11:47;;;;;;;33.40;15.13;;;;;;;0.10;60.55;101835.07;1757299;82;21015;-63
2022/03/15 03:14:21;;;;;;;29.70;14.33;;;;;;;0.04;60.70;101839.49;1757476;80;21054;-61
2022/03/15 03:16:48;;;;;;;33.35;15.00;;;;;;;-0.06;60.86;101843.20;1757227;82;21078;-62
2022/03/15 03:19:17;;;;;;;32.67;13.32;;;;;;;-0.14;61.03;101843.28;1757531;80;21046;-61
2022/03/15 03:21:48;;;;;;;35.95;15.23;;;;;;;-0.22;61.20;101837.50;1757417;80;21078;-63
2022/03/15 03:24:23;;;;;;;35.13;14.40;;;;;;;-0.29;61.41;101843.73;1757193;81;21477;-62
2022/03/15 03:26:52;;;;;;;31.95;14.65;;;;;;;-0.35;61.63;101846.32;1757323;82;21038;-63
2022/03/15 03:29:21;;;;;;;34.30;14.23;;;;;;;-0.42;61.88;101846.30;1757408;82;21053;-63
2022/03/15 03:31:51;;;;;;;30.65;13.50;;;;;;;-0.46;62.09;101840.72;1757169;80;21422;-62
2022/03/15 03:34:20;;;;;;;30.00;14.07;;;;;;;-0.47;62.22;101841.67;1757436;82;21094;-61
2022/03/15 03:36:49;;;;;;;29.77;14.10;;;;;;;-0.53;62.37;101850.12;1757400;82;21073;-62
2022/03/15 03:39:20;;;;;;;36.40;15.47;;;;;;;-0.58;62.54;101840.09;1756418;82;21438;-62
2022/03/15 03:41:50;;;;;;;37.45;18.17;;;;;;;-0.61;62.65;101839.41;1757149;82;21052;-62
2022/03/15 03:44:19;;;;;;;37.78;17.90;;;;;;;-0.64;62.88;101839.11;1757383;82;21045;-62
2022/03/15 03:46:48;;;;;;;40.50;17.95;;;;;;;-0.64;63.04;101840.46;1757331;82;21006;-61
2022/03/15 03:49:18;;;;;;;36.75;17.15;;;;;;;-0.62;63.16;101839.03;1757203;82;20986;-61
2022/03/15 03:51:47;;;;;;;37.63;17.35;;;;;;;-0.61;63.17;101836.72;1757211;80;21038;-62
2022/03/15 03:54:17;;;;;;;33.30;16.85;;;;;;;-0.61;63.14;101842.97;1757535;81;21466;-61
2022/03/15 03:56:46;;;;;;;36.68;17.80;;;;;;;-0.62;63.18;101841.72;1757317;82;21006;-62
2022/03/15 03:59:15;;;;;;;37.53;16.80;;;;;;;-0.64;63.18;101843.16;1757247;80;20990;-62
2022/03/15 04:01:44;;;;;;;35.78;15.85;;;;;;;-0.66;63.22;101839.17;1757459;80;21022;-61
2022/03/15 04:04:14;;;;;;;34.30;15.28;;;;;;;-0.69;63.27;101838.48;1757214;80;21046;-62
2022/03/15 04:06:43;;;;;;;33.67;15.25;;;;;;;-0.73;63.42;101841.84;1757210;82;21025;-62
2022/03/15 04:09:12;;;;;;;34.10;15.30;;;;;;;-0.76;63.57;101845.19;1757130;80;21074;-63
2022/03/15 04:11:42;;;;;;;31.33;14.70;;;;;;;-0.82;63.75;101841.51;1757390;82;20978;-62
2022/03/15 04:14:11;;;;;;;33.58;15.93;;;;;;;-0.84;63.86;101840.73;1757370;80;21014;-62
2022/03/15 04:16:41;;;;;;;35.45;16.55;;;;;;;-0.88;63.99;101834.66;1757215;82;21033;-62
2022/03/15 04:19:11;;;;;;;34.70;16.73;;;;;;;-0.88;64.08;101836.48;1757102;82;21038;-62
2022/03/15 04:21:41;;;;;;;35.17;16.75;;;;;;;-0.86;64.12;101838.61;1757275;82;21022;-62
2022/03/15 04:24:12;;;;;;;35.33;17.05;;;;;;;-0.85;64.16;101838.52;1757239;82;20982;-63
2022/03/15 04:26:42;;;;;;;35.15;16.95;;;;;;;-0.84;64.17;101839.38;1757436;82;21076;-62
2022/03/15 04:29:12;;;;;;;35.75;17.15;;;;;;;-0.86;64.16;101836.78;1757167;82;21089;-62
2022/03/15 04:31:42;;;;;;;36.85;17.65;;;;;;;-0.87;64.22;101837.73;1757185;80;21480;-62
2022/03/15 04:34:12;;;;;;;38.92;17.98;;;;;;;-0.90;64.30;101845.99;1757221;80;21054;-62
2022/03/15 04:36:44;;;;;;;37.67;18.15;;;;;;;-0.96;64.43;101836.45;1757502;82;21367;-61
2022/03/15 04:39:13;;;;;;;40.25;17.30;;;;;;;-0.97;64.58;101844.61;1757257;82;20987;-62
2022/03/15 04:41:45;;;;;;;43.70;18.82;;;;;;;-1.02;64.72;101838.16;1757052;80;21105;-62
2022/03/15 04:44:14;;;;;;;43.00;18.55;;;;;;;-1.05;64.86;101836.98;1757489;81;21025;-62
2022/03/15 04:46:45;;;;;;;37.10;18.50;;;;;;;-1.07;65.06;101834.86;1757510;82;21442;-63
2022/03/15 04:49:15;;;;;;;43.45;19.80;;;;;;;-1.07;65.20;101841.58;1757468;82;20978;-63
2022/03/15 04:51:46;;;;;;;39.73;18.48;;;;;;;-1.08;65.25;101838.98;1757364;82;20974;-62
2022/03/15 04:54:16;;;;;;;43.20;19.52;;;;;;;-1.07;65.34;101836.20;1757237;80;21049;-63
2022/03/15 04:56:45;;;;;;;41.68;18.35;;;;;;;-1.06;65.42;101829.87;1757287;82;20982;-63
2022/03/15 04:59:14;;;;;;;43.02;19.25;;;;;;;-1.03;65.43;101836.42;1757558;82;21069;-62
2022/03/15 05:01:43;;;;;;;46.83;20.62;;;;;;;-1.03;65.46;101836.42;1757401;80;20998;-63
2022/03/15 05:04:12;;;;;;;44.10;19.73;;;;;;;-1.03;65.52;101840.45;1757477;82;21069;-62
2022/03/15 05:06:42;;;;;;;55.65;22.02;;;;;;;-1.01;65.61;101833.16;1757420;80;21509;-61
2022/03/15 05:09:11;;;;;;;45.48;18.95;;;;;;;-0.99;65.60;101834.42;1757251;82;21022;-62
2022/03/15 05:11:49;;;;;;;51.83;21.37;;;;;;;-0.97;65.68;101826.64;1757213;82;21398;-63
2022/03/15 05:14:19;;;;;;;51.85;21.37;;;;;;;-0.96;65.64;101824.83;1757204;82;21026;-63
2022/03/15 05:16:47;;;;;;;51.73;21.45;;;;;;;-0.94;65.68;101831.45;1757495;80;21014;-63
2022/03/15 05:19:18;;;;;;;44.73;18.48;;;;;;;-0.90;65.68;101829.84;1757431;80;21477;-63
2022/03/15 05:21:47;;;;;;;47.90;19.40;;;;;;;-0.85;65.70;101832.27;1757513;80;21021;-62
2022/03/15 05:24:16;;;;;;;49.53;22.10;;;;;;;-0.80;65.73;101824.80;1757450;82;21478;-62
2022/03/15 05:26:46;;;;;;;49.73;22.22;;;;;;;-0.75;65.76;101825.39;1757288;82;21402;-61
2022/03/15 05:29:15;;;;;;;49.50;19.70;;;;;;;-0.71;65.74;101823.77;1757276;82;21025;-62
2022/03/15 05:31:45;;;;;;;46.30;18.00;;;;;;;-0.66;65.66;101816.77;1757274;82;21002;-62
2022/03/15 05:34:15;;;;;;;37.45;17.10;;;;;;;-0.59;65.60;101823.56;1757406;82;21089;-62
2022/03/15 05:36:44;;;;;;;39.00;17.65;;;;;;;-0.53;65.48;101820.98;1757152;82;21030;-62
2022/03/15 05:39:13;;;;;;;32.65;13.48;;;;;;;-0.47;65.42;101817.44;1757235;81;20994;-62
2022/03/15 05:41:42;;;;;;;27.70;13.43;;;;;;;-0.41;65.37;101820.24;1757342;82;21065;-63
2022/03/15 05:44:12;;;;;;;29.63;13.18;;;;;;;-0.33;65.26;101817.47;1757221;81;21042;-63
2022/03/15 05:46:41;;;;;;;22.13;11.33;;;;;;;-0.22;65.16;101821.34;1757461;80;21102;-62
2022/03/15 05:49:11;;;;;;;28.87;11.80;;;;;;;-0.11;64.90;101822.89;1757131;80;21002;-63
2022/03/15 05:51:40;;;;;;;25.55;11.63;;;;;;;-0.02;64.67;101821.84;1757105;82;21078;-62
2022/03/15 05:54:10;;;;;;;25.20;10.70;;;;;;;0.08;64.47;101826.22;1757379;80;21042;-62
2022/03/15 05:56:40;;;;;;;23.50;10.32;;;;;;;0.16;64.19;101825.25;1757182;80;21073;-62
2022/03/15 05:59:09;;;;;;;25.10;11.05;;;;;;;0.26;64.00;101827.76;1757410;82;21050;-62
2022/03/15 06:01:40;;;;;;;23.45;10.48;;;;;;;0.34;63.63;101822.36;1757495;80;21045;-62
2022/03/15 06:04:10;;;;;;;20.85;9.95;;;;;;;0.41;63.39;101827.75;1757191;80;21129;-63
2022/03/15 06:06:40;;;;;;;26.90;10.95;;;;;;;0.47;63.23;101821.48;1694861;84;21039;-62
2022/03/15 06:09:09;;;;;;;20.57;10.45;;;;;;;0.54;62.95;101817.91;1692778;84;21110;-62
2022/03/15 06:11:40;;;;;;;26.07;10.93;;;;;;;0.60;62.80;101817.52;1687332;85;21063;-63
2022/03/15 06:14:10;;;;;;;22.25;10.88;;;;;;;0.66;62.67;101817.16;1687553;85;21076;-62
2022/03/15 06:16:39;;;;;;;25.27;11.22;;;;;;;0.72;62.52;101811.36;1687640;85;21086;-62
2022/03/15 06:19:08;;;;;;;27.15;11.00;;;;;;;0.78;62.28;101816.84;1687484;85;21047;-62
2022/03/15 06:21:39;;;;;;;24.20;9.85;;;;;;;0.83;62.15;101813.36;1687248;85;21078;-63
2022/03/15 06:24:09;;;;;;;22.60;10.63;;;;;;;0.87;62.01;101814.41;1700762;82;21030;-61
2022/03/15 06:26:38;;;;;;;23.25;10.88;;;;;;;0.91;61.92;101818.62;1751903;82;21658;-62
2022/03/15 06:29:07;;;;;;;23.10;10.70;;;;;;;0.97;61.77;101818.70;1752081;81;21051;-61
2022/03/15 06:31:37;;;;;;;23.55;10.40;;;;;;;1.02;61.61;101811.66;1752032;82;21018;-62
2022/03/15 06:34:07;;;;;;;24.37;11.00;;;;;;;1.06;61.43;101812.70;1752034;80;21010;-63
2022/03/15 06:36:36;;;;;;;26.87;10.98;;;;;;;1.11;61.36;101813.75;1751960;80;21042;-63
2022/03/15 06:39:06;;;;;;;24.80;10.58;;;;;;;1.14;61.25;101810.36;1752129;81;20998;-63
2022/03/15 06:41:37;;;;;;;27.00;11.78;;;;;;;1.21;61.09;101814.86;1752053;80;21018;-62
2022/03/15 06:44:06;;;;;;;29.07;11.18;;;;;;;1.25;60.85;101809.15;1752050;80;21030;-62
2022/03/15 06:46:35;;;;;;;28.17;12.03;;;;;;;1.32;60.70;101803.37;1752073;80;21093;-62
2022/03/15 06:49:05;;;;;;;27.48;11.75;;;;;;;1.36;60.64;101800.84;1751919;82;21015;-62
2022/03/15 06:51:38;;;;;;;28.65;12.88;;;;;;;1.41;60.47;101796.86;1752087;82;21023;-64
2022/03/15 06:54:07;;;;;;;24.50;11.93;;;;;;;1.46;60.39;101797.41;1752040;82;21427;-63
2022/03/15 06:56:39;;;;;;;30.50;13.07;;;;;;;1.52;60.23;101795.64;1752244;81;21058;-62
2022/03/15 06:59:07;;;;;;;26.87;12.55;;;;;;;1.57;60.16;101794.83;1751934;82;21493;-62
2022/03/15 07:01:36;;;;;;;26.68;11.60;;;;;;;1.64;60.04;101798.46;1751956;82;21018;-62
2022/03/15 07:04:06;;;;;;;29.25;12.70;;;;;;;1.69;59.92;101793.61;1751929;82;21093;-64
2022/03/15 07:06:36;;;;;;;29.12;12.23;;;;;;;1.75;59.68;101796.75;1751872;81;21024;-62
2022/03/15 07:09:05;;;;;;;31.65;13.10;;;;;;;1.80;59.33;101793.23;1750608;80;21453;-63
2022/03/15 07:11:34;;;;;;;31.60;13.70;;;;;;;1.88;59.19;101794.92;1741167;81;21042;-63
2022/03/15 07:14:06;;;;;;;28.12;12.28;;;;;;;1.94;59.09;101793.63;1741128;82;21064;-61
2022/03/15 07:16:35;;;;;;;29.70;12.65;;;;;;;2.00;58.95;101785.11;1741025;82;21508;-62
2022/03/15 07:19:06;;;;;;;28.57;12.82;;;;;;;2.05;58.83;101777.54;1677409;85;21056;-63
2022/03/15 07:21:39;;;;;;;25.80;12.35;;;;;;;2.10;58.68;101778.08;1677310;85;21086;-63
2022/03/15 07:24:13;;;;;;;31.73;13.75;;;;;;;2.15;58.39;101778.61;1677303;85;21036;-62
2022/03/15 07:26:47;;;;;;;30.92;13.90;;;;;;;2.23;58.37;101774.00;1677807;85;21036;-62
2022/03/15 07:29:19;;;;;;;32.00;14.50;;;;;;;2.29;58.25;101770.86;1655327;85;21091;-62
2022/03/15 07:31:55;;;;;;;30.35;14.20;;;;;;;2.37;58.02;101766.24;1677456;85;21055;-63
2022/03/15 07:34:27;;;;;;;36.65;14.43;;;;;;;2.43;57.92;101771.20;1677632;85;21192;-63
2022/03/15 07:37:07;;;;;;;29.72;14.05;;;;;;;2.48;57.74;101770.38;1680619;82;21419;-63
2022/03/15 07:39:37;;;;;;;36.77;15.70;;;;;;;2.54;57.46;101764.52;1741007;82;21525;-62
2022/03/15 07:42:10;;;;;;;33.63;15.35;;;;;;;2.60;57.35;101761.85;1712435;82;21090;-61
2022/03/15 07:44:46;;;;;;;29.40;15.00;;;;;;;2.66;57.33;101762.30;1741288;81;21014;-62
2022/03/15 07:47:19;;;;;;;35.65;16.57;;;;;;;2.74;56.95;101766.66;1741209;82;21023;-63
2022/03/15 07:49:53;;;;;;;36.00;16.65;;;;;;;2.84;56.91;101760.06;1741151;82;21034;-63
2022/03/15 07:52:25;;;;;;;36.80;16.45;;;;;;;2.92;56.59;101762.20;1741123;82;21509;-64
2022/03/15 07:54:57;;;;;;;35.92;16.10;;;;;;;2.99;56.34;101767.03;1740969;82;21039;-64
2022/03/15 07:57:35;;;;;;;37.67;15.70;;;;;;;3.09;55.71;101760.44;1740500;82;21986;-62
2022/03/15 08:00:22;;;;;;;27.45;14.18;;;;;;;3.25;55.49;101760.13;1741040;82;21042;-63
2022/03/15 08:03:05;;;;;;;25.80;13.70;;;;;;;3.36;55.35;101759.72;1741215;81;21010;-62
2022/03/15 08:05:37;;;;;;;30.83;13.53;;;;;;;3.60;55.32;101754.73;1740616;82;21031;-63
2022/03/15 08:08:08;;;;;;;29.15;13.72;;;;;;;4.06;54.95;101758.28;1650105;86;21719;-63
2022/03/15 08:10:43;;;;;;;26.75;13.48;;;;;;;4.66;54.10;101754.81;1656117;86;21051;-62
2022/03/15 08:13:20;;;;;;;30.17;14.03;;;;;;;5.34;52.74;101754.99;1659840;86;21071;-63
2022/03/15 08:15:59;;;;;;;33.80;15.65;;;;;;;5.98;51.03;101753.05;1659711;86;21035;-61
2022/03/15 08:18:39;;;;;;;33.73;16.40;;;;;;;6.60;49.25;101742.52;1581802;91;21090;-62
2022/03/15 08:21:16;;;;;;;31.52;16.35;;;;;;;7.14;48.02;101741.17;1581916;91;21081;-61
2022/03/15 08:23:50;;;;;;;32.95;16.52;;;;;;;7.60;46.90;101734.15;1561422;91;21530;-62
2022/03/15 08:26:34;;;;;;;38.65;17.70;;;;;;;8.01;46.19;101733.44;1606843;86;21527;-63
2022/03/15 08:29:10;;;;;;;37.13;20.08;;;;;;;8.43;44.90;101727.91;1659899;85;21047;-62
2022/03/15 08:31:46;;;;;;;40.60;19.65;;;;;;;8.81;43.11;101726.86;1636974;86;21118;-63
2022/03/15 08:34:30;;;;;;;39.37;20.47;;;;;;;9.08;42.59;101731.41;1659842;86;21082;-64
2022/03/15 08:37:06;;;;;;;39.03;20.40;;;;;;;9.23;42.27;101725.44;1630106;86;21031;-62
2022/03/15 08:39:43;;;;;;;36.73;21.10;;;;;;;9.42;41.75;101729.37;1659787;86;21082;-61
2022/03/15 08:42:21;;;;;;;48.98;21.75;;;;;;;9.56;40.82;101723.84;1659606;86;21047;-62
2022/03/15 08:44:55;;;;;;;45.20;22.00;;;;;;;9.65;40.06;101723.73;1637910;86;21098;-61
2022/03/15 08:47:32;;;;;;;45.58;22.48;;;;;;;9.62;40.35;101724.06;1663549;86;21172;-62
2022/03/15 08:50:05;;;;;;;45.17;22.17;;;;;;;9.69;39.95;101725.66;1660035;85;21019;-63
2022/03/15 08:52:41;;;;;;;41.80;22.62;;;;;;;9.83;39.42;101719.62;1606826;89;21091;-63
2022/03/15 08:55:16;;;;;;;35.70;20.75;;;;;;;9.90;38.86;101718.47;1569648;89;21095;-63
2022/03/15 08:57:52;;;;;;;40.17;21.48;;;;;;;9.94;38.33;101718.50;1607108;89;21090;-65
2022/03/15 09:00:25;;;;;;;32.17;17.37;;;;;;;9.94;38.86;101727.57;1607068;89;21066;-61
2022/03/15 09:02:57;;;;;;;28.62;13.62;;;;;;;9.91;37.65;101733.88;1586421;89;21083;-62
2022/03/15 09:05:30;;;;;;;24.85;12.85;;;;;;;9.84;36.56;101725.45;1606696;89;21490;-62
2022/03/15 09:08:00;;;;;;;27.05;11.53;;;;;;;9.77;37.21;101738.92;1606778;89;21067;-63
2022/03/15 09:10:35;;;;;;;16.50;9.83;;;;;;;9.69;37.18;101731.13;1627607;86;21102;-62
2022/03/15 09:13:09;;;;;;;15.43;9.10;;;;;;;9.62;36.55;101730.91;1694561;82;21018;-62
2022/03/15 09:15:47;;;;;;;19.02;9.08;;;;;;;9.46;36.42;101735.73;1749543;80;21430;-61
2022/03/15 09:18:20;;;;;;;14.93;9.43;;;;;;;9.33;37.28;101745.36;1749406;82;21483;-62
2022/03/15 09:21:07;;;;;;;19.10;9.40;;;;;;;9.26;37.53;101736.06;1749392;82;21178;-62
2022/03/15 09:23:40;;;;;;;15.70;8.75;;;;;;;9.16;37.35;101738.36;1749741;82;21050;-61
2022/03/15 09:26:09;;;;;;;19.32;9.75;;;;;;;9.01;37.57;101728.95;1749703;82;21081;-61
2022/03/15 09:28:43;;;;;;;18.48;9.40;;;;;;;8.86;37.79;101725.03;1722599;82;21454;-61
2022/03/15 09:31:12;;;;;;;16.85;8.98;;;;;;;8.74;38.09;101719.42;1749485;80;20983;-63
2022/03/15 09:33:43;;;;;;;21.77;10.13;;;;;;;8.70;38.49;101712.05;1749413;81;21018;-64
2022/03/15 09:36:15;;;;;;;18.90;9.58;;;;;;;8.69;38.85;101721.77;1723221;82;21082;-63
2022/03/15 09:38:46;;;;;;;16.73;8.93;;;;;;;8.67;38.81;101710.12;1749588;80;21454;-62
2022/03/15 09:41:18;;;;;;;16.97;8.80;;;;;;;8.62;38.83;101701.53;1749485;82;21046;-63
2022/03/15 09:43:49;;;;;;;17.62;9.03;;;;;;;8.58;38.96;101716.86;1749484;81;21073;-63
2022/03/15 09:46:21;;;;;;;15.32;8.03;;;;;;;8.57;39.22;101720.61;1722959;82;21093;-61
2022/03/15 09:48:55;;;;;;;16.60;8.13;;;;;;;8.55;38.63;101721.27;1720444;82;21097;-62
2022/03/15 09:51:27;;;;;;;14.10;7.60;;;;;;;8.53;38.67;101719.19;1749685;82;21042;-62
2022/03/15 09:53:59;;;;;;;15.53;7.67;;;;;;;8.49;37.76;101714.19;1749474;82;21094;-63
2022/03/15 09:56:29;;;;;;;15.53;8.15;;;;;;;8.48;38.15;101713.83;1749725;82;21034;-63
2022/03/15 09:58:59;;;;;;;13.43;7.47;;;;;;;8.49;38.62;101712.31;1749487;81;21068;-62
2022/03/15 10:01:29;;;;;;;19.15;7.60;;;;;;;8.48;38.88;101703.77;1749504;80;21038;-63
2022/03/15 10:04:00;;;;;;;15.10;8.03;;;;;;;8.48;38.96;101705.64;1722753;82;21026;-62
2022/03/15 10:06:30;;;;;;;16.67;7.67;;;;;;;8.48;39.05;101703.77;1749877;81;21026;-63
2022/03/15 10:09:03;;;;;;;14.05;6.92;;;;;;;8.51;39.13;101703.97;1749797;81;21042;-63
2022/03/15 10:11:35;;;;;;;13.48;6.03;;;;;;;8.48;39.15;101702.40;1736678;82;21019;-63
2022/03/15 10:14:09;;;;;;;12.93;6.40;;;;;;;8.45;38.48;101703.17;1733170;83;21463;-63
2022/03/15 10:16:42;;;;;;;13.15;5.30;;;;;;;8.41;38.46;101703.98;1733201;82;21054;-63
2022/03/15 10:19:14;;;;;;;10.05;4.70;;;;;;;8.36;38.58;101698.12;1733176;83;21055;-63
2022/03/15 10:21:56;;;;;;;11.95;5.28;;;;;;;8.31;37.93;101696.82;1690046;84;21495;-62
2022/03/15 10:24:27;;;;;;;8.78;4.35;;;;;;;8.28;38.22;101693.38;1689633;85;21039;-64
2022/03/15 10:27:00;;;;;;;7.12;3.98;;;;;;;8.27;38.17;101688.93;1689588;85;21074;-61
2022/03/15 10:29:30;;;;;;;7.97;3.98;;;;;;;8.27;37.56;101690.80;1689464;85;21059;-63
2022/03/15 10:32:04;;;;;;;11.03;3.70;;;;;;;8.24;37.64;101686.50;1689592;85;21199;-62
2022/03/15 10:34:34;;;;;;;9.30;3.47;;;;;;;8.26;36.73;101686.35;1689561;85;21058;-63
2022/03/15 10:37:04;;;;;;;6.22;2.85;;;;;;;8.24;37.00;101693.84;1689778;85;21083;-64
2022/03/15 10:39:33;;;;;;;4.75;3.00;;;;;;;8.25;36.24;101686.00;1690042;85;21063;-63
2022/03/15 10:42:07;;;;;;;6.30;3.10;;;;;;;8.22;36.51;101683.56;1689524;85;21059;-64
2022/03/15 10:44:38;;;;;;;7.20;3.15;;;;;;;8.22;36.42;101697.22;1689753;85;21055;-62
2022/03/15 10:47:18;;;;;;;5.65;2.92;;;;;;;8.25;36.50;101677.80;1726353;83;21098;-62
2022/03/15 10:49:59;;;;;;;6.67;2.92;;;;;;;8.26;36.60;101681.75;1713111;83;21424;-62
2022/03/15 10:52:40;;;;;;;13.13;3.30;;;;;;;8.28;36.61;101682.96;1733356;82;21003;-61
2022/03/15 10:55:19;;;;;;;5.58;3.10;;;;;;;8.31;36.46;101679.06;1733212;83;21039;-62
2022/03/15 10:57:53;;;;;;;6.47;2.77;;;;;;;8.31;36.19;101676.34;1733271;81;21011;-63
2022/03/15 11:00:28;;;;;;;4.87;2.55;;;;;;;8.26;36.19;101672.70;1733031;81;21083;-62
2022/03/15 11:02:58;;;;;;;6.53;3.20;;;;;;;8.25;36.47;101673.71;1733209;81;21094;-63
2022/03/15 11:05:37;;;;;;;7.37;3.60;;;;;;;8.28;36.53;101670.17;1733248;81;21063;-63
2022/03/15 11:08:08;;;;;;;6.55;3.42;;;;;;;8.31;36.42;101674.47;1733210;83;21019;-63
2022/03/15 11:10:41;;;;;;;6.10;2.90;;;;;;;8.35;36.54;101675.91;1682055;84;21091;-63
2022/03/15 11:13:11;;;;;;;8.10;3.10;;;;;;;8.37;36.43;101661.61;1687590;84;21042;-64
2022/03/15 11:15:44;;;;;;;6.70;3.40;;;;;;;8.42;36.01;101658.41;1687768;85;21031;-62
2022/03/15 11:18:16;;;;;;;6.78;3.70;;;;;;;8.43;36.20;101662.36;1633194;88;21066;-62
2022/03/15 11:20:51;;;;;;;6.47;2.83;;;;;;;8.44;35.92;101664.58;1557370;92;21125;-63
2022/03/15 11:23:23;;;;;;;5.97;3.00;;;;;;;8.41;35.80;101656.19;1557462;92;21110;-62
2022/03/15 11:26:02;;;;;;;5.78;2.50;;;;;;;8.41;35.92;101653.97;1557444;91;21078;-63
2022/03/15 11:28:34;;;;;;;6.78;2.47;;;;;;;8.41;35.28;101655.33;1575698;89;21062;-62
2022/03/15 11:31:04;;;;;;;4.22;2.37;;;;;;;8.42;35.17;101647.48;1607165;89;21058;-64
2022/03/15 11:33:35;;;;;;;4.33;2.35;;;;;;;8.44;35.26;101644.09;1537378;92;21078;-62
2022/03/15 11:36:05;;;;;;;6.37;2.00;;;;;;;8.44;34.62;101645.46;1575525;89;21066;-62